createdAt,value
2018-06-23T00:00:03.817Z,10.07
2018-06-23T00:01:03.878Z,9.98
2018-06-23T00:02:03.932Z,9.88
2018-06-23T00:03:03.996Z,9.91
2018-06-23T00:04:04.048Z,9.98
2018-06-23T00:05:04.106Z,10.06
2018-06-23T00:06:04.162Z,10.01
2018-06-23T00:07:04.219Z,9.98
2018-06-23T00:08:04.276Z,9.83
2018-06-23T00:09:04.336Z,9.71
2018-06-23T00:10:04.391Z,9.77
2018-06-23T00:11:04.449Z,9.71
2018-06-23T00:12:04.506Z,9.74
2018-06-23T00:13:04.564Z,9.77
2018-06-23T00:14:04.623Z,9.78
2018-06-23T00:15:04.679Z,9.70
2018-06-23T00:16:04.736Z,9.77
2018-06-23T00:17:04.796Z,9.71
2018-06-23T00:18:04.851Z,9.78
2018-06-23T00:19:04.910Z,9.70
2018-06-23T00:20:04.965Z,9.74
2018-06-23T00:21:05.023Z,9.71
2018-06-23T00:22:05.080Z,9.68
2018-06-23T00:23:05.137Z,9.68
2018-06-23T00:24:05.193Z,9.74
2018-06-23T00:25:05.252Z,9.62
2018-06-23T00:26:05.311Z,9.59
2018-06-23T00:27:05.367Z,9.73
2018-06-23T00:28:05.425Z,9.81
2018-06-23T00:29:05.482Z,9.70
2018-06-23T00:30:05.539Z,9.77
2018-06-23T00:31:05.595Z,9.65
2018-06-23T00:32:05.653Z,9.65
2018-06-23T00:33:05.711Z,9.42
2018-06-23T00:34:05.768Z,9.44
2018-06-23T00:35:05.825Z,9.52
2018-06-23T00:36:06.133Z,9.58
2018-06-23T00:37:05.941Z,9.52
2018-06-23T00:38:05.998Z,9.52
2018-06-23T00:39:06.055Z,9.40
2018-06-23T00:40:06.111Z,9.35
2018-06-23T00:41:06.169Z,9.26
2018-06-23T00:42:06.227Z,9.37
2018-06-23T00:43:06.282Z,9.35
2018-06-23T00:44:06.340Z,9.34
2018-06-23T00:45:06.398Z,9.30
2018-06-23T00:46:06.455Z,9.37
2018-06-23T00:47:06.512Z,9.48
2018-06-23T00:48:06.569Z,9.45
2018-06-23T00:49:06.625Z,9.45
2018-06-23T00:50:06.685Z,9.35
2018-06-23T00:51:06.740Z,9.30
2018-06-23T00:52:06.798Z,9.34
2018-06-23T00:53:06.856Z,9.32
2018-06-23T00:54:06.913Z,9.38
2018-06-23T00:55:06.969Z,9.31
2018-06-23T00:56:07.030Z,9.30
2018-06-23T00:57:07.085Z,9.19
2018-06-23T00:58:07.140Z,9.32
2018-06-23T00:59:07.198Z,9.24
2018-06-23T01:00:07.256Z,9.16
2018-06-23T01:01:07.312Z,9.17
2018-06-23T01:02:07.370Z,9.15
2018-06-23T01:03:07.426Z,9.06
2018-06-23T01:04:07.484Z,9.16
2018-06-23T01:05:07.541Z,9.17
2018-06-23T01:06:07.598Z,9.26
2018-06-23T01:07:07.654Z,9.30
2018-06-23T01:08:07.710Z,9.30
2018-06-23T01:09:07.769Z,9.24
2018-06-23T01:10:07.825Z,9.31
2018-06-23T01:11:07.883Z,9.31
2018-06-23T01:12:07.939Z,9.19
2018-06-23T01:13:07.997Z,9.17
2018-06-23T01:14:08.054Z,9.17
2018-06-23T01:15:08.109Z,9.19
2018-06-23T01:16:08.167Z,9.24
2018-06-23T01:17:08.225Z,9.17
2018-06-23T01:18:08.281Z,9.20
2018-06-23T01:19:08.337Z,9.13
2018-06-23T01:20:08.395Z,9.01
2018-06-23T01:21:08.452Z,8.93
2018-06-23T01:22:08.509Z,8.89
2018-06-23T01:23:08.565Z,8.88
2018-06-23T01:24:08.623Z,9.06
2018-06-23T01:25:08.679Z,9.00
2018-06-23T01:26:08.737Z,9.03
2018-06-23T01:27:08.796Z,9.01
2018-06-23T01:28:08.850Z,9.04
2018-06-23T01:29:08.907Z,9.01
2018-06-23T01:30:08.966Z,8.94
2018-06-23T01:31:09.019Z,8.91
2018-06-23T01:32:09.077Z,8.88
2018-06-23T01:33:09.136Z,8.88
2018-06-23T01:34:09.196Z,8.91
2018-06-23T01:35:09.248Z,8.91
2018-06-23T01:36:09.305Z,8.89
2018-06-23T01:37:09.362Z,8.91
2018-06-23T01:38:09.419Z,8.91
2018-06-23T01:39:09.475Z,8.98
2018-06-23T01:40:09.532Z,8.88
2018-06-23T01:41:09.590Z,8.86
2018-06-23T01:42:09.649Z,8.86
2018-06-23T01:43:09.707Z,8.75
2018-06-23T01:44:09.759Z,8.78
2018-06-23T01:45:09.819Z,8.75
2018-06-23T01:46:09.873Z,8.68
2018-06-23T01:47:09.931Z,8.82
2018-06-23T01:48:09.987Z,8.85
2018-06-23T01:49:10.047Z,8.89
2018-06-23T01:50:10.353Z,8.96
2018-06-23T01:51:10.159Z,8.97
2018-06-23T01:52:10.213Z,9.06
2018-06-23T01:53:10.272Z,9.16
2018-06-23T01:54:10.328Z,9.17
2018-06-23T01:55:10.385Z,9.17
2018-06-23T01:56:10.442Z,9.06
2018-06-23T01:57:10.499Z,9.03
2018-06-23T01:58:10.558Z,9.03
2018-06-23T01:59:10.614Z,9.01
2018-06-23T02:00:10.670Z,9.08
2018-06-23T02:01:10.727Z,8.98
2018-06-23T02:02:10.784Z,9.08
2018-06-23T02:03:10.839Z,9.03
2018-06-23T02:04:10.897Z,8.96
2018-06-23T02:05:10.954Z,8.94
2018-06-23T02:06:11.019Z,8.93
2018-06-23T02:07:11.068Z,8.89
2018-06-23T02:08:11.128Z,8.88
2018-06-23T02:09:11.183Z,8.85
2018-06-23T02:10:11.239Z,8.89
2018-06-23T02:11:11.295Z,8.76
2018-06-23T02:12:11.356Z,8.83
2018-06-23T02:13:11.410Z,8.89
2018-06-23T02:14:11.467Z,8.97
2018-06-23T02:15:11.532Z,9.01
2018-06-23T02:16:11.581Z,9.12
2018-06-23T02:17:11.639Z,9.10
2018-06-23T02:18:11.698Z,9.12
2018-06-23T02:19:11.754Z,8.93
2018-06-23T02:20:11.808Z,8.80
2018-06-23T02:21:11.865Z,8.75
2018-06-23T02:22:11.922Z,8.78
2018-06-23T02:23:11.979Z,8.71
2018-06-23T02:24:12.035Z,8.82
2018-06-23T02:25:12.092Z,8.89
2018-06-23T02:26:12.150Z,8.83
2018-06-23T02:27:12.206Z,8.88
2018-06-23T02:28:12.263Z,8.85
2018-06-23T02:29:12.570Z,8.98
2018-06-23T02:30:12.377Z,8.83
2018-06-23T02:31:12.434Z,8.75
2018-06-23T02:32:12.491Z,8.78
2018-06-23T02:33:12.547Z,8.68
2018-06-23T02:34:12.603Z,8.78
2018-06-23T02:35:12.662Z,8.68
2018-06-23T02:36:12.718Z,8.75
2018-06-23T02:37:12.776Z,8.79
2018-06-23T02:38:12.833Z,8.76
2018-06-23T02:39:12.890Z,8.85
2018-06-23T02:40:12.945Z,8.97
2018-06-23T02:41:13.001Z,8.94
2018-06-23T02:42:13.060Z,8.94
2018-06-23T02:43:13.115Z,8.96
2018-06-23T02:44:13.173Z,9.03
2018-06-23T02:45:13.229Z,9.06
2018-06-23T02:46:13.287Z,9.03
2018-06-23T02:47:13.343Z,8.94
2018-06-23T02:48:13.400Z,8.98
2018-06-23T02:49:13.456Z,9.04
2018-06-23T02:50:13.514Z,9.00
2018-06-23T02:51:13.570Z,9.06
2018-06-23T02:52:13.876Z,9.01
2018-06-23T02:53:13.684Z,9.15
2018-06-23T02:54:13.741Z,9.19
2018-06-23T02:55:13.796Z,9.26
2018-06-23T02:56:13.855Z,9.38
2018-06-23T02:57:13.912Z,9.42
2018-06-23T02:58:13.968Z,9.49
2018-06-23T02:59:14.025Z,9.50
2018-06-23T03:00:14.097Z,9.55
2018-06-23T03:01:14.143Z,9.55
2018-06-23T03:02:14.198Z,9.63
2018-06-23T03:03:14.252Z,9.62
2018-06-23T03:04:14.312Z,9.60
2018-06-23T03:05:14.368Z,9.62
2018-06-23T03:06:14.426Z,9.63
2018-06-23T03:07:14.481Z,9.60
2018-06-23T03:08:14.539Z,9.59
2018-06-23T03:09:14.595Z,9.63
2018-06-23T03:10:14.653Z,9.59
2018-06-23T03:11:14.712Z,9.49
2018-06-23T03:12:14.769Z,9.49
2018-06-23T03:13:14.827Z,9.55
2018-06-23T03:14:14.882Z,9.53
2018-06-23T03:15:14.939Z,9.38
2018-06-23T03:16:14.997Z,9.26
2018-06-23T03:17:15.053Z,9.24
2018-06-23T03:18:15.110Z,9.23
2018-06-23T03:19:15.168Z,9.16
2018-06-23T03:20:15.232Z,9.17
2018-06-23T03:21:15.283Z,9.08
2018-06-23T03:22:15.342Z,9.16
2018-06-23T03:23:15.396Z,9.01
2018-06-23T03:24:15.453Z,9.03
2018-06-23T03:25:15.512Z,9.06
2018-06-23T03:26:15.575Z,8.98
2018-06-23T03:27:15.624Z,9.04
2018-06-23T03:28:15.683Z,8.97
2018-06-23T03:29:15.741Z,8.98
2018-06-23T03:30:15.797Z,8.85
2018-06-23T03:31:15.853Z,8.97
2018-06-23T03:32:15.911Z,8.98
2018-06-23T03:33:15.969Z,9.06
2018-06-23T03:34:16.025Z,8.97
2018-06-23T03:35:16.082Z,9.01
2018-06-23T03:36:16.389Z,9.13
2018-06-23T03:37:16.197Z,9.10
2018-06-23T03:38:16.253Z,9.10
2018-06-23T03:39:16.310Z,9.23
2018-06-23T03:40:16.367Z,9.19
2018-06-23T03:41:16.425Z,9.26
2018-06-23T03:42:16.481Z,9.26
2018-06-23T03:43:16.538Z,9.22
2018-06-23T03:44:16.594Z,9.20
2018-06-23T03:45:16.654Z,9.16
2018-06-23T03:46:16.709Z,9.16
2018-06-23T03:47:16.764Z,9.17
2018-06-23T03:48:16.822Z,9.03
2018-06-23T03:49:16.880Z,9.13
2018-06-23T03:50:16.937Z,9.23
2018-06-23T03:51:16.994Z,9.35
2018-06-23T03:52:17.050Z,9.31
2018-06-23T03:53:17.107Z,9.32
2018-06-23T03:54:17.165Z,9.42
2018-06-23T03:55:17.221Z,9.35
2018-06-23T03:56:17.278Z,9.41
2018-06-23T03:57:17.335Z,9.45
2018-06-23T03:58:17.392Z,9.44
2018-06-23T03:59:17.447Z,9.45
2018-06-23T04:00:17.540Z,9.58
2018-06-23T04:01:17.579Z,9.44
2018-06-23T04:02:17.620Z,9.45
2018-06-23T04:03:17.678Z,9.53
2018-06-23T04:04:17.734Z,9.53
2018-06-23T04:05:17.792Z,9.55
2018-06-23T04:06:17.860Z,9.48
2018-06-23T04:07:17.908Z,9.60
2018-06-23T04:08:17.965Z,9.65
2018-06-23T04:09:18.021Z,9.68
2018-06-23T04:10:18.078Z,9.71
2018-06-23T04:11:18.135Z,9.65
2018-06-23T04:12:18.192Z,9.75
2018-06-23T04:13:18.250Z,9.71
2018-06-23T04:14:18.306Z,9.70
2018-06-23T04:15:18.364Z,9.78
2018-06-23T04:16:18.421Z,9.78
2018-06-23T04:17:18.477Z,9.70
2018-06-23T04:18:18.536Z,9.73
2018-06-23T04:19:18.593Z,9.63
2018-06-23T04:20:18.650Z,9.49
2018-06-23T04:21:18.709Z,9.65
2018-06-23T04:22:18.765Z,9.63
2018-06-23T04:23:18.822Z,9.65
2018-06-23T04:24:18.880Z,9.71
2018-06-23T04:25:18.937Z,9.68
2018-06-23T04:26:18.995Z,9.75
2018-06-23T04:27:19.052Z,9.86
2018-06-23T04:28:19.110Z,9.89
2018-06-23T04:29:19.185Z,9.95
2018-06-23T04:30:19.226Z,9.88
2018-06-23T04:31:19.282Z,9.73
2018-06-23T04:32:19.338Z,9.68
2018-06-23T04:33:19.396Z,9.74
2018-06-23T04:34:19.455Z,9.74
2018-06-23T04:35:19.512Z,9.73
2018-06-23T04:36:19.969Z,9.77
2018-06-23T04:37:19.631Z,9.85
2018-06-23T04:38:19.685Z,9.89
2018-06-23T04:39:19.742Z,9.98
2018-06-23T04:40:19.799Z,9.93
2018-06-23T04:41:20.516Z,9.92
2018-06-23T04:42:20.719Z,9.88
2018-06-23T04:43:20.606Z,9.83
2018-06-23T04:44:20.732Z,9.86
2018-06-23T04:45:20.088Z,9.85
2018-06-23T04:46:20.146Z,9.85
2018-06-23T04:47:20.202Z,9.85
2018-06-23T04:48:20.260Z,9.83
2018-06-23T04:49:20.318Z,9.78
2018-06-23T04:50:20.376Z,9.78
2018-06-23T04:51:20.433Z,9.85
2018-06-23T04:52:20.491Z,9.91
2018-06-23T04:53:20.551Z,9.92
2018-06-23T04:54:20.607Z,9.96
2018-06-23T04:55:20.665Z,10.02
2018-06-23T04:56:20.723Z,10.04
2018-06-23T04:57:20.780Z,10.09
2018-06-23T04:58:20.838Z,10.17
2018-06-23T04:59:20.898Z,10.11
2018-06-23T05:00:20.981Z,10.22
2018-06-23T05:01:21.012Z,10.20
2018-06-23T05:02:21.072Z,10.18
2018-06-23T05:03:21.128Z,10.32
2018-06-23T05:04:21.185Z,10.32
2018-06-23T05:05:21.247Z,10.36
2018-06-23T05:06:21.300Z,10.31
2018-06-23T05:07:21.363Z,10.49
2018-06-23T05:08:21.418Z,10.51
2018-06-23T05:09:21.475Z,10.51
2018-06-23T05:10:21.784Z,10.43
2018-06-23T05:11:21.595Z,10.54
2018-06-23T05:12:21.693Z,10.55
2018-06-23T05:13:21.709Z,10.62
2018-06-23T05:14:21.767Z,10.72
2018-06-23T05:15:21.825Z,10.76
2018-06-23T05:16:21.880Z,10.78
2018-06-23T05:17:21.939Z,10.75
2018-06-23T05:18:21.998Z,10.83
2018-06-23T05:19:22.055Z,10.81
2018-06-23T05:20:22.115Z,10.86
2018-06-23T05:21:22.172Z,10.84
2018-06-23T05:22:22.231Z,10.91
2018-06-23T05:23:22.288Z,10.86
2018-06-23T05:24:22.347Z,10.86
2018-06-23T05:25:22.405Z,10.88
2018-06-23T05:26:22.464Z,10.83
2018-06-23T05:27:22.521Z,10.88
2018-06-23T05:28:22.579Z,10.93
2018-06-23T05:29:22.640Z,10.94
2018-06-23T05:30:22.699Z,11.03
2018-06-23T05:31:22.755Z,11.06
2018-06-23T05:32:22.814Z,11.16
2018-06-23T05:33:22.873Z,11.27
2018-06-23T05:34:22.931Z,11.26
2018-06-23T05:35:22.991Z,11.45
2018-06-23T05:36:23.050Z,11.51
2018-06-23T05:37:23.107Z,11.57
2018-06-23T05:38:23.166Z,11.57
2018-06-23T05:39:23.375Z,11.59
2018-06-23T05:40:23.285Z,11.62
2018-06-23T05:41:23.341Z,11.66
2018-06-23T05:42:23.401Z,11.70
2018-06-23T05:43:23.460Z,11.79
2018-06-23T05:44:23.521Z,11.93
2018-06-23T05:45:23.578Z,12.01
2018-06-23T05:46:23.637Z,12.01
2018-06-23T05:47:23.696Z,12.05
2018-06-23T05:48:23.755Z,12.00
2018-06-23T05:49:23.813Z,12.04
2018-06-23T05:50:23.875Z,12.12
2018-06-23T05:51:24.028Z,12.11
2018-06-23T05:52:23.993Z,12.19
2018-06-23T05:53:24.053Z,12.19
2018-06-23T05:54:24.111Z,12.33
2018-06-23T05:55:24.170Z,12.36
2018-06-23T05:56:24.230Z,12.31
2018-06-23T05:57:24.293Z,12.21
2018-06-23T05:58:24.348Z,12.21
2018-06-23T05:59:24.412Z,12.23
2018-06-23T06:00:24.468Z,12.29
2018-06-23T06:01:24.528Z,12.43
2018-06-23T06:02:24.586Z,12.43
2018-06-23T06:03:24.646Z,12.48
2018-06-23T06:04:24.705Z,12.52
2018-06-23T06:05:24.765Z,12.58
2018-06-23T06:06:24.828Z,12.63
2018-06-23T06:07:25.133Z,12.59
2018-06-23T06:08:24.943Z,12.58
2018-06-23T06:09:25.005Z,12.59
2018-06-23T06:10:25.099Z,12.80
2018-06-23T06:11:25.121Z,12.63
2018-06-23T06:12:25.182Z,12.73
2018-06-23T06:13:25.244Z,12.84
2018-06-23T06:14:25.302Z,12.96
2018-06-23T06:15:26.024Z,13.03
2018-06-23T06:16:26.060Z,13.07
2018-06-23T06:17:26.056Z,13.07
2018-06-23T06:18:26.566Z,12.96
2018-06-23T06:19:26.165Z,13.10
2018-06-23T06:20:26.222Z,13.13
2018-06-23T06:21:26.296Z,13.13
2018-06-23T06:22:26.375Z,13.27
2018-06-23T06:23:26.541Z,13.27
2018-06-23T06:24:26.756Z,13.44
2018-06-23T06:25:26.683Z,13.55
2018-06-23T06:26:26.697Z,13.62
2018-06-23T06:27:26.725Z,13.63
2018-06-23T06:28:26.732Z,13.63
2018-06-23T06:29:26.840Z,13.75
2018-06-23T06:30:30.427Z,13.80
2018-06-23T06:31:26.323Z,13.79
2018-06-23T06:32:26.381Z,13.80
2018-06-23T06:33:26.444Z,13.80
2018-06-23T06:34:27.080Z,13.86
2018-06-23T06:35:27.175Z,13.83
2018-06-23T06:36:27.321Z,13.87
2018-06-23T06:37:26.682Z,13.87
2018-06-23T06:38:26.743Z,13.91
2018-06-23T06:39:26.802Z,13.86
2018-06-23T06:40:26.861Z,14.02
2018-06-23T06:41:26.923Z,14.06
2018-06-23T06:42:27.632Z,14.21
2018-06-23T06:43:27.646Z,14.13
2018-06-23T06:44:27.741Z,13.90
2018-06-23T06:45:27.754Z,13.84
2018-06-23T06:46:27.854Z,14.04
2018-06-23T06:47:28.047Z,14.01
2018-06-23T06:48:28.020Z,14.19
2018-06-23T06:49:27.985Z,14.08
2018-06-23T06:50:28.031Z,14.27
2018-06-23T06:51:28.013Z,14.30
2018-06-23T06:52:28.178Z,14.30
2018-06-23T06:53:28.108Z,14.38
2018-06-23T06:55:28.270Z,14.38
2018-06-23T06:56:28.328Z,14.34
2018-06-23T06:57:28.276Z,14.38
2018-06-23T06:58:28.732Z,14.26
2018-06-23T06:59:28.013Z,14.36
2018-06-23T07:00:28.085Z,14.24
2018-06-23T07:01:28.135Z,14.26
2018-06-23T07:02:28.196Z,14.27
2018-06-23T07:03:28.306Z,14.38
2018-06-23T07:04:28.316Z,14.34
2018-06-23T07:05:28.377Z,14.36
2018-06-23T07:06:28.439Z,14.53
2018-06-23T07:07:28.499Z,14.56
2018-06-23T07:08:28.559Z,14.67
2018-06-23T07:09:28.620Z,14.59
2018-06-23T07:10:28.681Z,14.53
2018-06-23T07:11:28.740Z,14.53
2018-06-23T07:12:28.801Z,14.60
2018-06-23T07:13:28.862Z,14.54
2018-06-23T07:14:28.923Z,14.52
2018-06-23T07:15:28.994Z,14.63
2018-06-23T07:16:29.044Z,14.60
2018-06-23T07:17:29.105Z,14.78
2018-06-23T07:18:29.166Z,14.75
2018-06-23T07:19:29.230Z,14.85
2018-06-23T07:20:29.287Z,14.97
2018-06-23T07:21:29.349Z,14.94
2018-06-23T07:22:29.410Z,14.97
2018-06-23T07:23:29.522Z,14.90
2018-06-23T07:24:29.530Z,14.94
2018-06-23T07:25:29.591Z,14.97
2018-06-23T07:26:29.652Z,14.95
2018-06-23T07:27:29.713Z,15.00
2018-06-23T07:28:29.774Z,14.93
2018-06-23T07:29:29.834Z,14.98
2018-06-23T07:30:29.896Z,15.07
2018-06-23T07:31:29.962Z,15.07
2018-06-23T07:32:30.168Z,15.20
2018-06-23T07:33:30.078Z,15.16
2018-06-23T07:34:30.246Z,15.07
2018-06-23T07:35:30.199Z,15.01
2018-06-23T07:36:30.265Z,15.15
2018-06-23T07:37:30.323Z,15.22
2018-06-23T07:38:30.637Z,15.25
2018-06-23T07:39:30.443Z,15.35
2018-06-23T07:40:30.504Z,15.46
2018-06-23T07:41:30.616Z,15.48
2018-06-23T07:42:30.628Z,15.49
2018-06-23T07:43:30.687Z,15.40
2018-06-23T07:44:30.749Z,15.35
2018-06-23T07:45:30.810Z,15.20
2018-06-23T07:46:30.881Z,15.23
2018-06-23T07:47:30.931Z,15.34
2018-06-23T07:48:30.993Z,15.35
2018-06-23T07:49:31.831Z,15.41
2018-06-23T07:50:31.721Z,15.56
2018-06-23T07:51:31.175Z,15.49
2018-06-23T07:52:31.237Z,15.58
2018-06-23T07:53:31.301Z,15.58
2018-06-23T07:54:31.360Z,15.53
2018-06-23T07:55:31.570Z,15.56
2018-06-23T07:56:31.481Z,15.51
2018-06-23T07:57:31.543Z,15.46
2018-06-23T07:58:31.603Z,15.52
2018-06-23T07:59:31.664Z,15.70
2018-06-23T08:00:31.725Z,15.77
2018-06-23T08:01:31.819Z,15.76
2018-06-23T08:02:31.848Z,15.85
2018-06-23T08:03:31.910Z,15.89
2018-06-23T08:04:31.971Z,15.88
2018-06-23T08:05:32.030Z,16.01
2018-06-23T08:06:32.094Z,16.07
2018-06-23T08:07:32.152Z,16.17
2018-06-23T08:08:32.212Z,16.37
2018-06-23T08:09:32.281Z,16.32
2018-06-23T08:10:32.335Z,16.25
2018-06-23T08:11:32.396Z,16.23
2018-06-23T08:12:32.707Z,16.26
2018-06-23T08:13:32.520Z,16.30
2018-06-23T08:14:32.586Z,16.42
2018-06-23T08:15:32.641Z,16.48
2018-06-23T08:16:32.702Z,16.32
2018-06-23T08:17:32.763Z,16.33
2018-06-23T08:18:32.838Z,16.17
2018-06-23T08:19:32.885Z,16.17
2018-06-23T08:20:32.947Z,16.22
2018-06-23T08:21:33.009Z,16.26
2018-06-23T08:22:33.072Z,16.34
2018-06-23T08:23:33.132Z,16.44
2018-06-23T08:24:33.194Z,16.73
2018-06-23T08:25:33.261Z,16.81
2018-06-23T08:26:33.411Z,16.84
2018-06-23T08:27:33.379Z,16.95
2018-06-23T08:28:33.440Z,17.20
2018-06-23T08:29:33.503Z,17.39
2018-06-23T08:30:33.566Z,17.40
2018-06-23T08:31:33.627Z,17.36
2018-06-23T08:32:33.690Z,17.54
2018-06-23T08:33:33.752Z,17.53
2018-06-23T08:34:33.814Z,17.54
2018-06-23T08:35:33.877Z,17.60
2018-06-23T08:36:33.942Z,17.57
2018-06-23T08:37:34.002Z,17.53
2018-06-23T08:38:34.066Z,17.53
2018-06-23T08:39:34.128Z,17.65
2018-06-23T08:40:34.191Z,17.71
2018-06-23T08:41:34.254Z,17.70
2018-06-23T08:42:34.316Z,17.95
2018-06-23T08:43:34.391Z,18.01
2018-06-23T08:44:34.446Z,17.91
2018-06-23T08:45:34.506Z,18.14
2018-06-23T08:46:34.570Z,18.32
2018-06-23T08:47:34.634Z,18.64
2018-06-23T08:48:34.699Z,18.62
2018-06-23T08:49:34.762Z,18.68
2018-06-23T08:50:34.826Z,18.93
2018-06-23T08:51:35.040Z,18.79
2018-06-23T08:52:34.957Z,18.56
2018-06-23T08:53:35.019Z,18.41
2018-06-23T08:54:35.083Z,18.62
2018-06-23T08:55:35.151Z,18.79
2018-06-23T08:56:35.212Z,18.93
2018-06-23T08:57:35.277Z,18.89
2018-06-23T08:58:35.342Z,19.10
2018-06-23T08:59:35.406Z,19.16
2018-06-23T09:00:35.471Z,18.99
2018-06-23T09:01:35.537Z,18.99
2018-06-23T09:02:35.602Z,19.17
2018-06-23T09:03:35.665Z,19.12
2018-06-23T09:04:35.731Z,19.10
2018-06-23T09:05:35.798Z,19.17
2018-06-23T09:06:35.864Z,19.40
2018-06-23T09:07:35.926Z,19.71
2018-06-23T09:08:35.994Z,19.75
2018-06-23T09:09:36.131Z,19.70
2018-06-23T09:10:36.124Z,19.47
2018-06-23T09:11:36.188Z,19.20
2018-06-23T09:12:36.257Z,18.84
2018-06-23T09:13:36.352Z,18.94
2018-06-23T09:14:36.386Z,18.62
2018-06-23T09:15:36.451Z,18.59
2018-06-23T09:16:36.517Z,18.57
2018-06-23T09:17:36.582Z,18.35
2018-06-23T09:18:36.652Z,18.32
2018-06-23T09:19:36.779Z,18.62
2018-06-23T09:20:36.784Z,18.76
2018-06-23T09:21:36.844Z,18.99
2018-06-23T09:22:36.911Z,18.96
2018-06-23T09:23:36.979Z,19.23
2018-06-23T09:24:37.042Z,19.35
2018-06-23T09:25:37.239Z,18.75
2018-06-23T09:26:37.375Z,19.12
2018-06-23T09:27:37.238Z,18.97
2018-06-23T09:28:37.303Z,19.27
2018-06-23T09:29:37.369Z,19.46
2018-06-23T09:30:37.434Z,19.57
2018-06-23T09:31:37.511Z,19.57
2018-06-23T09:32:37.573Z,19.68
2018-06-23T09:33:37.632Z,19.82
2018-06-23T09:34:37.698Z,19.97
2018-06-23T09:35:37.762Z,20.12
2018-06-23T09:36:37.829Z,20.08
2018-06-23T09:37:37.899Z,19.86
2018-06-23T09:38:37.961Z,19.61
2018-06-23T09:39:38.041Z,19.23
2018-06-23T09:40:38.093Z,19.07
2018-06-23T09:41:38.160Z,19.20
2018-06-23T09:42:38.225Z,19.27
2018-06-23T09:43:38.294Z,19.25
2018-06-23T09:44:38.357Z,19.34
2018-06-23T09:45:38.423Z,19.42
2018-06-23T09:46:38.490Z,19.39
2018-06-23T09:47:38.556Z,19.45
2018-06-23T09:48:38.622Z,19.28
2018-06-23T09:49:38.689Z,18.87
2018-06-23T09:50:38.754Z,18.82
2018-06-23T09:51:38.817Z,19.13
2018-06-23T09:52:38.885Z,19.25
2018-06-23T09:53:38.951Z,19.12
2018-06-23T09:54:39.016Z,19.38
2018-06-23T09:55:39.082Z,19.27
2018-06-23T09:56:39.150Z,19.42
2018-06-23T09:57:39.215Z,19.20
2018-06-23T09:58:39.281Z,19.21
2018-06-23T09:59:39.345Z,19.28
2018-06-23T10:00:39.412Z,18.82
2018-06-23T10:01:39.478Z,18.84
2018-06-23T10:02:39.544Z,18.76
2018-06-23T10:03:39.611Z,18.75
2018-06-23T10:04:39.676Z,18.75
2018-06-23T10:05:39.741Z,18.84
2018-06-23T10:06:39.810Z,19.07
2018-06-23T10:07:40.447Z,18.83
2018-06-23T10:08:40.489Z,18.87
2018-06-23T10:09:40.596Z,18.84
2018-06-23T10:10:40.688Z,18.89
2018-06-23T10:11:40.748Z,19.07
2018-06-23T10:12:41.030Z,19.35
2018-06-23T10:13:40.934Z,19.57
2018-06-23T10:14:40.969Z,19.64
2018-06-23T10:15:41.023Z,19.55
2018-06-23T10:16:41.055Z,19.68
2018-06-23T10:17:40.644Z,20.00
2018-06-23T10:18:41.188Z,20.12
2018-06-23T10:19:41.189Z,20.31
2018-06-23T10:20:41.275Z,20.10
2018-06-23T10:21:41.395Z,20.33
2018-06-23T10:22:40.876Z,20.50
2018-06-23T10:23:41.702Z,21.09
2018-06-23T10:24:41.679Z,21.33
2018-06-23T10:25:41.663Z,21.13
2018-06-23T10:26:41.763Z,20.50
2018-06-23T10:27:41.951Z,20.33
2018-06-23T10:28:41.813Z,20.50
2018-06-23T10:29:42.114Z,20.61
2018-06-23T10:30:41.942Z,20.41
2018-06-23T10:31:42.101Z,20.58
2018-06-23T10:32:42.179Z,20.72
2018-06-23T10:33:42.197Z,20.38
2018-06-23T10:34:42.531Z,19.94
2018-06-23T10:35:42.408Z,20.08
2018-06-23T10:36:41.833Z,20.10
2018-06-23T10:37:41.902Z,19.67
2018-06-23T10:38:41.970Z,19.95
2018-06-23T10:39:42.038Z,19.80
2018-06-23T10:40:42.105Z,20.12
2018-06-23T10:41:42.176Z,20.25
2018-06-23T10:42:42.241Z,20.37
2018-06-23T10:43:42.306Z,20.41
2018-06-23T10:44:42.374Z,20.33
2018-06-23T10:45:42.441Z,20.73
2018-06-23T10:46:42.509Z,21.38
2018-06-23T10:47:42.576Z,21.91
2018-06-23T10:48:42.644Z,21.75
2018-06-23T10:49:42.711Z,22.05
2018-06-23T10:50:42.779Z,20.94
2018-06-23T10:51:42.846Z,20.78
2018-06-23T10:52:42.915Z,20.85
2018-06-23T10:53:42.982Z,20.82
2018-06-23T10:54:43.052Z,20.96
2018-06-23T10:55:43.118Z,21.66
2018-06-23T10:56:43.187Z,22.02
2018-06-23T10:57:43.269Z,22.01
2018-06-23T10:58:43.325Z,21.43
2018-06-23T10:59:43.392Z,21.58
2018-06-23T11:00:43.461Z,21.67
2018-06-23T11:01:43.529Z,21.52
2018-06-23T11:02:43.751Z,21.43
2018-06-23T11:03:43.668Z,21.13
2018-06-23T11:04:43.760Z,21.22
2018-06-23T11:05:43.813Z,20.81
2018-06-23T11:06:43.875Z,20.73
2018-06-23T11:07:43.941Z,20.69
2018-06-23T11:08:44.013Z,20.30
2018-06-23T11:09:44.080Z,20.10
2018-06-23T11:10:44.149Z,19.64
2018-06-23T11:11:44.216Z,19.87
2018-06-23T11:12:44.287Z,20.12
2018-06-23T11:13:44.352Z,20.20
2018-06-23T11:14:44.421Z,19.89
2018-06-23T11:15:44.487Z,20.12
2018-06-23T11:16:44.556Z,20.16
2018-06-23T11:17:44.622Z,20.07
2018-06-23T11:18:44.840Z,20.16
2018-06-23T11:19:44.756Z,20.19
2018-06-23T11:20:44.823Z,20.19
2018-06-23T11:21:44.889Z,20.40
2018-06-23T11:22:44.956Z,21.09
2018-06-23T11:23:45.023Z,21.81
2018-06-23T11:24:45.090Z,21.99
2018-06-23T11:25:45.157Z,21.96
2018-06-23T11:26:45.223Z,22.24
2018-06-23T11:27:45.290Z,22.17
2018-06-23T11:28:45.358Z,22.09
2018-06-23T11:29:45.426Z,22.08
2018-06-23T11:30:45.494Z,22.15
2018-06-23T11:31:45.562Z,21.75
2018-06-23T11:32:45.632Z,21.61
2018-06-23T11:33:45.702Z,21.19
2018-06-23T11:34:45.765Z,20.98
2018-06-23T11:35:45.831Z,20.90
2018-06-23T11:36:45.902Z,20.75
2018-06-23T11:37:45.967Z,20.78
2018-06-23T11:38:46.037Z,20.97
2018-06-23T11:39:46.102Z,20.58
2018-06-23T11:40:46.169Z,19.72
2018-06-23T11:41:46.390Z,19.82
2018-06-23T11:42:46.305Z,19.76
2018-06-23T11:43:46.372Z,19.98
2018-06-23T11:44:46.445Z,20.23
2018-06-23T11:45:46.508Z,20.31
2018-06-23T11:46:46.573Z,20.41
2018-06-23T11:47:46.637Z,20.50
2018-06-23T11:48:46.704Z,20.27
2018-06-23T11:49:46.771Z,20.23
2018-06-23T11:50:46.837Z,20.34
2018-06-23T11:51:46.902Z,20.30
2018-06-23T11:52:46.969Z,20.53
2018-06-23T11:53:47.037Z,20.25
2018-06-23T11:54:47.105Z,20.01
2018-06-23T11:55:47.168Z,19.87
2018-06-23T11:56:47.233Z,20.02
2018-06-23T11:57:47.300Z,19.98
2018-06-23T11:58:47.366Z,19.79
2018-06-23T11:59:47.431Z,19.90
2018-06-23T12:00:47.497Z,19.55
2018-06-23T12:01:47.568Z,19.17
2018-06-23T12:02:47.628Z,19.01
2018-06-23T12:03:47.697Z,19.20
2018-06-23T12:04:48.011Z,19.16
2018-06-23T12:05:47.825Z,19.27
2018-06-23T12:06:48.366Z,19.21
2018-06-23T12:07:48.627Z,19.15
2018-06-23T12:08:48.644Z,19.15
2018-06-23T12:09:48.731Z,19.15
2018-06-23T12:10:48.436Z,19.17
2018-06-23T12:11:48.784Z,19.28
2018-06-23T12:12:48.858Z,19.32
2018-06-23T12:13:48.972Z,19.35
2018-06-23T12:14:48.996Z,19.28
2018-06-23T12:15:49.100Z,19.34
2018-06-23T12:16:49.341Z,19.28
2018-06-23T12:17:49.291Z,18.91
2018-06-23T12:18:49.261Z,18.79
2018-06-23T12:19:49.381Z,18.91
2018-06-23T12:20:48.798Z,18.82
2018-06-23T12:21:48.862Z,18.74
2018-06-23T12:22:48.926Z,18.34
2018-06-23T12:23:48.990Z,18.28
2018-06-23T12:24:49.055Z,18.31
2018-06-23T12:25:49.121Z,18.25
2018-06-23T12:26:49.185Z,18.26
2018-06-23T12:27:49.246Z,18.41
2018-06-23T12:28:49.310Z,18.47
2018-06-23T12:29:49.375Z,18.34
2018-06-23T12:30:49.440Z,18.44
2018-06-23T12:31:49.501Z,18.59
2018-06-23T12:32:49.566Z,18.71
2018-06-23T12:33:49.630Z,18.78
2018-06-23T12:34:49.693Z,18.91
2018-06-23T12:35:49.754Z,18.96
2018-06-23T12:36:49.818Z,18.99
2018-06-23T12:37:49.883Z,19.07
2018-06-23T12:38:49.946Z,19.17
2018-06-23T12:39:50.010Z,19.21
2018-06-23T12:40:50.072Z,19.02
2018-06-23T12:41:50.137Z,19.02
2018-06-23T12:42:50.203Z,18.90
2018-06-23T12:43:50.263Z,18.76
2018-06-23T12:44:50.327Z,18.59
2018-06-23T12:45:50.391Z,18.53
2018-06-23T12:46:50.454Z,18.49
2018-06-23T12:47:50.517Z,18.47
2018-06-23T12:48:50.580Z,18.32
2018-06-23T12:49:50.645Z,18.32
2018-06-23T12:50:50.712Z,18.31
2018-06-23T12:51:50.771Z,18.34
2018-06-23T12:52:50.839Z,18.50
2018-06-23T12:53:50.898Z,18.59
2018-06-23T12:54:50.960Z,18.65
2018-06-23T12:55:51.024Z,18.76
2018-06-23T12:56:51.088Z,18.83
2018-06-23T12:57:51.151Z,18.83
2018-06-23T12:58:51.214Z,18.60
2018-06-23T12:59:51.276Z,18.62
2018-06-23T13:00:51.340Z,18.71
2018-06-23T13:01:51.403Z,18.83
2018-06-23T13:02:51.465Z,18.72
2018-06-23T13:03:51.528Z,18.75